Flight Track Log - Related Links

Times and Time Zones

All times are in EDT time to prevent confusion due to time zone crossing. See the THY2466 flight status page for this flight to view local times or setup timezone preferences in your user account.

Time Position Orientation Groundspeed Altitude Reporting Facility
EDT Latitude Longitude Course Direction KTS MPH feet Rate Location/Type
Mon 09:28:00 AM 40.6524 29.3980 126° Southeast  Level Estimated
Mon 09:29:00 AM 40.5871 29.5127 127° Southeast  Level Estimated
Mon 09:30:00 AM 40.5218 29.6272 127° Southeast  Level Estimated
Mon 09:31:00 AM 40.4563 29.7414 127° Southeast  Level Estimated
Mon 09:32:00 AM 40.3907 29.8554 127° Southeast  Level Estimated
Mon 09:33:00 AM 40.3250 29.9693 127° Southeast  Level Estimated
Mon 09:34:00 AM 40.2592 30.0828 127° Southeast  Level Estimated
Mon 09:35:00 AM 40.1932 30.1962 127° Southeast  Level Estimated
Mon 09:36:00 AM 40.1272 30.3094 127° Southeast  Level Estimated
Mon 09:37:00 AM 40.0611 30.4223 127° Southeast  Level Estimated
Mon 09:38:00 AM 39.9948 30.5350 127° Southeast  Level Estimated
Mon 09:39:00 AM 39.9285 30.6475 128° Southeast  Level Estimated
Mon 09:40:00 AM 39.8620 30.7598 128° Southeast  Level Estimated
Mon 09:41:00 AM 39.7954 30.8718 128° Southeast  Level Estimated
Mon 09:42:00 AM 39.7287 30.9837 128° Southeast  Level Estimated
Mon 09:43:00 AM 39.6619 31.0953 128° Southeast  Level Estimated
Mon 09:44:00 AM 39.5951 31.2067 128° Southeast  Level Estimated
Mon 09:45:00 AM 39.5280 31.3179 128° Southeast  Level Estimated
Mon 09:46:00 AM 39.4609 31.4288 128° Southeast  Level Estimated
Mon 09:47:00 AM 39.3937 31.5396 128° Southeast  Level Estimated
Mon 09:48:00 AM 39.3264 31.6502 128° Southeast  Level Estimated
Mon 09:49:00 AM 39.2590 31.7605 128° Southeast  Level Estimated
Mon 09:50:00 AM 39.1914 31.8706 128° Southeast  Level Estimated
Mon 09:51:00 AM 39.1238 31.9805 128° Southeast  Level Estimated
Mon 09:52:00 AM 39.0561 32.0902 128° Southeast  Level Estimated
Mon 09:53:00 AM 38.9883 32.1997 129° Southeast  Level Estimated
Mon 09:54:00 AM 38.9203 32.3090 129° Southeast  Level Estimated
Mon 09:55:00 AM 38.8523 32.4180 129° Southeast  Level Estimated
Mon 09:56:00 AM 38.7841 32.5269 129° Southeast  Level Estimated
Mon 09:57:00 AM 38.7159 32.6356 129° Southeast  Level Estimated
Mon 09:58:00 AM 38.6475 32.7440 129° Southeast  Level Estimated
Mon 09:59:00 AM 38.5791 32.8522 129° Southeast  Level Estimated
Mon 10:00:00 AM 38.5106 32.9603 129° Southeast  Level Estimated
Mon 10:01:00 AM 38.4419 33.0681 129° Southeast  Level Estimated
Mon 10:02:00 AM 38.3732 33.1757 129° Southeast  Level Estimated
Mon 10:03:00 AM 38.3044 33.2831 129° Southeast  Level Estimated
Mon 10:04:00 AM 38.2354 33.3904 129° Southeast  Level Estimated
Mon 10:05:00 AM 38.1664 33.4974 129° Southeast  Level Estimated
Mon 10:06:00 AM 38.0973 33.6042 129° Southeast  Level Estimated
Mon 10:07:00 AM 38.0280 33.7108 129° Southeast  Level Estimated
Mon 10:08:00 AM 37.9587 33.8172 130° Southeast  Level Estimated
Mon 10:09:00 AM 37.8893 33.9234 130° Southeast  Level Estimated
Mon 10:10:00 AM 37.8198 34.0294 130° Southeast  Level Estimated
Mon 10:11:00 AM 37.7502 34.1352 130° Southeast  Level Estimated
Mon 10:12:00 AM 37.6805 34.2408 130° Southeast  Level Estimated
Mon 10:13:00 AM 37.6107 34.3462 130° Southeast  Level Estimated
Mon 10:14:00 AM 37.5408 34.4514 130° Southeast  Level Estimated
Mon 10:15:00 AM 37.4708 34.5564 130° Southeast  Level Estimated
Mon 10:16:00 AM 37.4007 34.6612 130° Southeast  Level Estimated
Mon 10:17:00 AM 37.3305 34.7659 130° Southeast  Level Estimated
Mon 10:18:00 AM 37.2603 34.8703 130° Southeast  Level Estimated
Mon 10:19:00 AM 37.1899 34.9745 130° Southeast  Level Estimated
Mon 10:20:00 AM 37.1195 35.0785 130° Southeast  Level Estimated
Mon 10:21:00 AM 37.0490 35.1824 130° Southeast  Level Estimated
Mon 10:22:00 AM 36.9822 35.2804 130° Southeast  Level Estimated
Mon 10:23:00 AM 36.9822 35.2804 202° Southwest  Level Estimated
Mon 10:24:00 AM 36.9822 35.2804 202° Southwest  Level Estimated
Mon 10:25:00 AM 36.9822 35.2804 202° Southwest  Level Estimated
Mon 10:26:00 AM 36.9822 35.2804 202° Southwest  Level Estimated
Mon 10:27:00 AM 36.9822 35.2804 202° Southwest  Level Estimated
Mon 10:28:00 AM 36.9822 35.2804 202° Southwest  Level Estimated
Mon 10:29:00 AM 36.9822 35.2804 202° Southwest  Level Estimated
Mon 10:30:00 AM 36.9822 35.2804 202° Southwest  Level Estimated
Mon 10:31:00 AM 36.9822 35.2804 202° Southwest  Level Estimated
Mon 10:32:00 AM 36.9822 35.2804 202° Southwest  Level Estimated
Mon 10:33:00 AM 36.9822 35.2804 202° Southwest  Level Estimated
Mon 10:34:00 AM 36.9822 35.2804 202° Southwest  Level Estimated
Mon 10:35:00 AM 36.9822 35.2804 202° Southwest  Level Estimated
Mon 10:36:00 AM 36.9822 35.2804 202° Southwest  Level Estimated
Mon 10:37:00 AM 36.9822 35.2804 202° Southwest  Level Estimated
Mon 10:38:00 AM 36.9822 35.2804 202° Southwest  Level Estimated

Login

Don't have an account? Register now (free) for customized features, flight alerts, and more!